Time;durP1;ratioP1;P1;durP2;ratioP2;P2;SDS_P1;SDS_P2;PMS_P1;PMS_P2;Temp;Humidity;BMP_temperature;BMP_pressure;BME280_temperature;BME280_humidity;BME280_pressure;Samples;Min_cycle;Max_cycle;Signal;HPM_P1;HPM_P2
2024/03/03 00:02:20;;;;;;;45.90;31.53;;;8.90;99.90;;;;;;5055567;28;20652;-72
2024/03/03 00:04:45;;;;;;;38.00;27.77;;;8.90;99.90;;;;;;5059045;28;20200;-73
2024/03/03 00:07:11;;;;;;;36.17;27.10;;;8.90;99.90;;;;;;5062380;28;20181;-72
2024/03/03 00:09:37;;;;;;;45.30;31.07;;;8.90;99.90;;;;;;5047805;28;20204;-72
2024/03/03 00:12:02;;;;;;;42.10;27.93;;;8.90;99.90;;;;;;5052659;28;20196;-73
2024/03/03 00:14:28;;;;;;;40.50;26.37;;;8.80;99.90;;;;;;5065605;28;20280;-72
2024/03/03 00:16:53;;;;;;;38.33;26.70;;;8.80;99.90;;;;;;5042993;28;20182;-73
2024/03/03 00:19:19;;;;;;;34.63;24.80;;;8.90;99.90;;;;;;5037984;28;20206;-73
2024/03/03 00:21:44;;;;;;;36.40;27.17;;;8.90;99.90;;;;;;5032435;28;20194;-73
2024/03/03 00:24:10;;;;;;;36.80;26.73;;;8.80;99.90;;;;;;5058776;28;20277;-72
2024/03/03 00:26:35;;;;;;;37.07;25.07;;;8.80;99.90;;;;;;5063083;28;20182;-72
2024/03/03 00:29:01;;;;;;;39.43;25.63;;;8.70;99.90;;;;;;5061571;28;20254;-72
2024/03/03 00:31:26;;;;;;;35.60;25.97;;;8.70;99.90;;;;;;5052664;28;20259;-72
2024/03/03 00:33:52;;;;;;;36.77;25.83;;;8.70;99.90;;;;;;5053480;28;20197;-73
2024/03/03 00:36:18;;;;;;;42.60;28.10;;;8.60;99.90;;;;;;5060610;28;20184;-73
2024/03/03 00:38:44;;;;;;;40.87;27.27;;;8.60;99.90;;;;;;5064670;28;20191;-72
2024/03/03 00:41:10;;;;;;;40.03;26.00;;;8.60;99.90;;;;;;5046683;28;20934;-72
2024/03/03 00:43:36;;;;;;;40.10;26.60;;;8.60;99.90;;;;;;5067681;28;20435;-72
2024/03/03 00:46:02;;;;;;;42.23;27.77;;;8.70;99.90;;;;;;5060302;28;20205;-73
2024/03/03 00:48:28;;;;;;;41.07;28.97;;;8.70;99.90;;;;;;5059578;28;20486;-73
2024/03/03 00:50:53;;;;;;;39.60;29.50;;;8.70;99.90;;;;;;5058473;28;20533;-73
2024/03/03 00:53:22;;;;;;;39.50;27.20;;;8.80;99.90;;;;;;5064644;28;20188;-73
2024/03/03 00:55:48;;;;;;;37.57;27.63;;;8.80;99.90;;;;;;5056949;28;20275;-73
2024/03/03 00:58:14;;;;;;;41.27;29.40;;;8.80;99.90;;;;;;5049573;28;20519;-73
2024/03/03 01:00:40;;;;;;;42.17;30.00;;;8.80;99.90;;;;;;5035149;28;20437;-72
2024/03/03 01:03:06;;;;;;;46.03;30.50;;;8.70;99.90;;;;;;5059113;28;20431;-72
2024/03/03 01:05:32;;;;;;;40.43;29.27;;;8.80;99.90;;;;;;5056258;28;20439;-72
2024/03/03 01:07:57;;;;;;;44.27;30.27;;;8.80;99.90;;;;;;5061611;28;20354;-73
2024/03/03 01:10:23;;;;;;;39.33;28.40;;;8.80;99.90;;;;;;5053116;28;20186;-72
2024/03/03 01:12:48;;;;;;;40.40;28.23;;;8.80;99.90;;;;;;5053800;28;20178;-73
2024/03/03 01:15:14;;;;;;;44.77;29.10;;;8.90;99.90;;;;;;5050769;28;20238;-73
2024/03/03 01:17:39;;;;;;;39.70;28.00;;;8.90;99.90;;;;;;5059291;28;20184;-73
2024/03/03 01:20:06;;;;;;;37.80;28.00;;;8.80;99.90;;;;;;5059303;28;20186;-72
2024/03/03 01:22:32;;;;;;;34.93;28.03;;;8.90;99.90;;;;;;5062906;28;20173;-73
2024/03/03 01:24:58;;;;;;;36.50;28.30;;;8.80;99.90;;;;;;5055137;28;20516;-72
2024/03/03 01:27:24;;;;;;;35.43;26.77;;;8.80;99.90;;;;;;5050849;28;20443;-72
2024/03/03 01:29:50;;;;;;;40.80;26.73;;;8.70;99.90;;;;;;5054566;28;20797;-72
2024/03/03 01:32:16;;;;;;;35.10;25.97;;;8.70;99.90;;;;;;5048828;28;20489;-72
2024/03/03 01:34:41;;;;;;;38.13;28.03;;;8.70;99.90;;;;;;5052339;28;20205;-73
2024/03/03 01:37:07;;;;;;;40.43;27.47;;;8.60;99.90;;;;;;5050432;28;20803;-73
2024/03/03 01:39:36;;;;;;;37.67;26.27;;;8.40;99.90;;;;;;5056859;28;20581;-73
2024/03/03 01:42:01;;;;;;;41.50;28.73;;;8.30;99.90;;;;;;5051631;28;20192;-72
2024/03/03 01:44:27;;;;;;;41.60;28.27;;;8.30;99.90;;;;;;5059438;28;20424;-71
2024/03/03 01:46:54;;;;;;;39.83;28.70;;;8.20;99.90;;;;;;5057834;28;20180;-72
2024/03/03 01:49:20;;;;;;;49.07;32.33;;;8.20;99.90;;;;;;5032186;28;20531;-72
2024/03/03 01:51:47;;;;;;;44.93;31.53;;;8.20;99.90;;;;;;5048525;28;20863;-72
2024/03/03 01:54:13;;;;;;;44.03;30.10;;;8.20;99.90;;;;;;5035693;28;20522;-72
2024/03/03 01:56:43;;;;;;;44.47;32.30;;;8.20;99.90;;;;;;5051302;28;20924;-72
2024/03/03 01:59:09;;;;;;;47.80;32.10;;;8.20;99.90;;;;;;5071390;28;20453;-72
2024/03/03 02:01:35;;;;;;;45.23;28.63;;;8.20;99.90;;;;;;5053191;28;20416;-72
2024/03/03 02:04:02;;;;;;;42.77;29.77;;;8.20;99.90;;;;;;5051690;28;20601;-73
2024/03/03 02:06:31;;;;;;;38.70;27.27;;;8.10;99.90;;;;;;5058245;28;20438;-72
2024/03/03 02:08:58;;;;;;;39.93;28.20;;;8.10;99.90;;;;;;5068304;28;20446;-73
2024/03/03 02:11:23;;;;;;;41.90;29.43;;;8.00;99.90;;;;;;5056430;28;20530;-72
2024/03/03 02:13:49;;;;;;;41.40;30.90;;;7.90;99.90;;;;;;5050107;28;20877;-73
2024/03/03 02:16:15;;;;;;;41.60;29.93;;;7.80;99.90;;;;;;5058769;28;20681;-72
2024/03/03 02:18:40;;;;;;;46.27;32.97;;;7.80;99.90;;;;;;5062878;28;20224;-71
2024/03/03 02:21:06;;;;;;;37.93;28.77;;;7.90;99.90;;;;;;5063697;28;20192;-71
2024/03/03 02:23:31;;;;;;;47.13;33.03;;;7.80;99.90;;;;;;5057881;28;20178;-72
2024/03/03 02:25:57;;;;;;;48.10;33.20;;;7.80;99.90;;;;;;5059268;28;20185;-72
2024/03/03 02:28:25;;;;;;;55.67;33.97;;;7.90;99.90;;;;;;5053057;28;20728;-72
2024/03/03 02:30:50;;;;;;;50.73;33.30;;;7.80;99.90;;;;;;5052792;28;20447;-73
2024/03/03 02:33:16;;;;;;;46.00;34.33;;;7.90;99.90;;;;;;5056211;28;20426;-73
2024/03/03 02:35:41;;;;;;;47.93;31.63;;;7.80;99.90;;;;;;5056213;28;20205;-72
2024/03/03 02:38:07;;;;;;;56.93;37.80;;;7.80;99.90;;;;;;5054830;28;20194;-72
2024/03/03 02:40:32;;;;;;;41.43;30.70;;;7.90;99.90;;;;;;5059113;28;20173;-72
2024/03/03 02:42:59;;;;;;;41.50;28.63;;;7.90;99.90;;;;;;5059314;28;20197;-71
2024/03/03 02:45:25;;;;;;;39.77;29.03;;;7.80;99.90;;;;;;5059534;28;20283;-72
2024/03/03 02:47:53;;;;;;;51.93;32.57;;;7.60;99.90;;;;;;5062849;28;20470;-72
2024/03/03 02:50:19;;;;;;;50.23;34.23;;;7.60;99.90;;;;;;5054832;28;20177;-73
2024/03/03 02:52:44;;;;;;;52.40;33.53;;;7.60;99.90;;;;;;5056798;28;20447;-72
2024/03/03 02:55:10;;;;;;;46.37;31.50;;;7.70;99.90;;;;;;5051714;28;20456;-71
2024/03/03 02:57:35;;;;;;;41.53;27.67;;;7.70;99.90;;;;;;5053211;28;20666;-72
2024/03/03 03:00:01;;;;;;;41.87;30.30;;;7.60;99.90;;;;;;5057175;28;20561;-72
2024/03/03 03:02:27;;;;;;;51.53;33.70;;;7.50;99.90;;;;;;5056276;28;20655;-72
2024/03/03 03:04:52;;;;;;;51.53;32.20;;;7.40;99.90;;;;;;5069192;28;20189;-71
2024/03/03 03:07:18;;;;;;;48.57;31.77;;;7.40;99.90;;;;;;5051371;28;20177;-72
2024/03/03 03:09:46;;;;;;;47.50;31.43;;;7.40;99.90;;;;;;5060347;28;20200;-72
2024/03/03 03:12:12;;;;;;;49.23;32.73;;;7.40;99.90;;;;;;5062865;28;20601;-72
2024/03/03 03:14:37;;;;;;;47.47;31.10;;;7.30;99.90;;;;;;5059394;28;20463;-72
2024/03/03 03:17:03;;;;;;;45.33;31.90;;;7.30;99.90;;;;;;5057018;28;20539;-72
2024/03/03 03:19:30;;;;;;;46.33;30.33;;;7.20;99.90;;;;;;5054788;28;20187;-72
2024/03/03 03:21:56;;;;;;;45.90;32.10;;;7.20;99.90;;;;;;5048599;28;20206;-72
2024/03/03 03:24:23;;;;;;;42.47;29.00;;;7.20;99.90;;;;;;5062849;28;20815;-71
2024/03/03 03:26:49;;;;;;;43.70;32.07;;;7.20;99.90;;;;;;5044740;28;20981;-72
2024/03/03 03:29:14;;;;;;;44.50;29.47;;;7.20;99.90;;;;;;5061863;28;20450;-71
2024/03/03 03:31:40;;;;;;;46.67;31.20;;;7.10;99.90;;;;;;5057072;28;20266;-72
2024/03/03 03:34:05;;;;;;;43.33;31.80;;;7.10;99.90;;;;;;5057224;28;20682;-72
2024/03/03 03:36:31;;;;;;;51.47;32.43;;;7.10;99.90;;;;;;5058909;28;20646;-72
2024/03/03 03:38:58;;;;;;;50.80;31.57;;;7.10;99.90;;;;;;5054404;28;20189;-72
2024/03/03 03:41:24;;;;;;;51.53;32.80;;;7.10;99.90;;;;;;5054766;28;20545;-72
2024/03/03 03:43:49;;;;;;;47.60;32.37;;;7.10;99.90;;;;;;5067444;28;20442;-72
2024/03/03 03:46:15;;;;;;;53.20;33.53;;;7.10;99.90;;;;;;5041225;28;20233;-72
2024/03/03 03:48:41;;;;;;;48.87;33.23;;;7.10;99.90;;;;;;5040243;28;20738;-72
2024/03/03 03:51:06;;;;;;;48.63;32.70;;;7.10;99.90;;;;;;5060267;28;20772;-72
2024/03/03 03:53:32;;;;;;;52.50;34.13;;;7.10;99.90;;;;;;5063270;28;20161;-71
2024/03/03 03:55:57;;;;;;;47.43;31.60;;;7.10;99.90;;;;;;5053470;28;20205;-71
2024/03/03 03:58:23;;;;;;;49.60;31.47;;;7.10;99.90;;;;;;5046821;28;20247;-72
2024/03/03 04:00:48;;;;;;;50.60;30.30;;;7.10;99.90;;;;;;5048575;28;20178;-70
2024/03/03 04:03:14;;;;;;;48.33;33.60;;;7.10;99.90;;;;;;5064051;28;20212;-72
2024/03/03 04:05:39;;;;;;;45.97;30.97;;;7.10;99.90;;;;;;5045302;28;20185;-72
2024/03/03 04:08:05;;;;;;;48.90;32.13;;;7.10;99.90;;;;;;5038755;28;20709;-72
2024/03/03 04:10:31;;;;;;;47.97;31.80;;;7.10;99.90;;;;;;5053971;28;20174;-72
2024/03/03 04:12:56;;;;;;;51.50;32.90;;;7.10;99.90;;;;;;5044939;28;20178;-72
2024/03/03 04:15:22;;;;;;;45.93;32.40;;;7.10;99.90;;;;;;5061753;28;20193;-72
2024/03/03 04:17:47;;;;;;;58.03;34.80;;;7.10;99.90;;;;;;5063005;28;20181;-72
2024/03/03 04:20:13;;;;;;;48.43;34.63;;;7.10;99.90;;;;;;5053616;28;20166;-72
2024/03/03 04:22:38;;;;;;;45.37;31.03;;;7.10;99.90;;;;;;5060660;28;20174;-72
2024/03/03 04:25:04;;;;;;;45.20;30.63;;;7.10;99.90;;;;;;5053667;28;20189;-72
2024/03/03 04:27:30;;;;;;;53.43;32.67;;;7.10;99.90;;;;;;5048039;28;20183;-72
2024/03/03 04:29:55;;;;;;;45.37;30.83;;;7.10;99.90;;;;;;5058196;28;20444;-71
2024/03/03 04:32:21;;;;;;;45.77;31.00;;;7.10;99.90;;;;;;5049200;28;20181;-72
2024/03/03 04:34:46;;;;;;;49.50;33.47;;;7.10;99.90;;;;;;5062607;28;20193;-72
2024/03/03 04:37:12;;;;;;;43.00;29.47;;;7.10;99.90;;;;;;5055024;28;20177;-71
2024/03/03 04:39:37;;;;;;;53.47;33.90;;;7.10;99.90;;;;;;5060699;28;20288;-72
2024/03/03 04:42:04;;;;;;;44.00;28.80;;;7.10;99.90;;;;;;5062892;28;20235;-72
2024/03/03 04:44:32;;;;;;;45.70;32.07;;;7.10;99.90;;;;;;5065343;28;20234;-73
2024/03/03 04:46:58;;;;;;;50.33;31.40;;;7.00;99.90;;;;;;5053155;28;20443;-72
2024/03/03 04:49:24;;;;;;;44.07;31.37;;;7.00;99.90;;;;;;5065240;28;20451;-72
2024/03/03 04:51:50;;;;;;;49.73;32.30;;;7.00;99.90;;;;;;5068063;28;20188;-72
2024/03/03 04:54:15;;;;;;;42.30;30.13;;;7.00;99.90;;;;;;5052665;28;20985;-71
2024/03/03 04:56:41;;;;;;;46.80;30.50;;;6.90;99.90;;;;;;5055656;28;20180;-72
2024/03/03 04:59:06;;;;;;;45.20;30.90;;;6.90;99.90;;;;;;5048557;28;20675;-72
2024/03/03 05:01:33;;;;;;;46.53;30.67;;;6.90;99.90;;;;;;5049748;28;20179;-71
2024/03/03 05:03:59;;;;;;;49.20;32.30;;;6.90;99.90;;;;;;5058626;28;20182;-72
2024/03/03 05:06:24;;;;;;;47.27;32.00;;;6.80;99.90;;;;;;5053812;28;20441;-71
2024/03/03 05:08:50;;;;;;;51.40;31.50;;;6.80;99.90;;;;;;5056503;28;20471;-72
2024/03/03 05:11:16;;;;;;;51.07;33.20;;;6.90;99.90;;;;;;5060457;28;20666;-71
2024/03/03 05:13:41;;;;;;;52.13;31.80;;;6.90;99.90;;;;;;5057299;28;20174;-72
2024/03/03 05:16:07;;;;;;;48.00;32.60;;;6.90;99.90;;;;;;5058444;28;20439;-71
2024/03/03 05:18:33;;;;;;;47.60;31.03;;;6.90;99.90;;;;;;5063344;28;20191;-73
2024/03/03 05:20:59;;;;;;;50.23;32.07;;;6.80;99.90;;;;;;5041527;28;20189;-73
2024/03/03 05:23:25;;;;;;;46.07;29.80;;;6.80;99.90;;;;;;5060362;28;20177;-72
2024/03/03 05:25:50;;;;;;;45.43;31.93;;;6.80;99.90;;;;;;5063852;28;20956;-72
2024/03/03 05:28:16;;;;;;;52.70;32.50;;;6.70;99.90;;;;;;5051668;28;20701;-72
2024/03/03 05:30:41;;;;;;;50.53;31.43;;;6.80;99.90;;;;;;5059524;28;20178;-73
2024/03/03 05:33:08;;;;;;;44.33;31.70;;;6.80;99.90;;;;;;5052784;28;20182;-71
2024/03/03 05:35:36;;;;;;;43.73;29.73;;;6.80;99.90;;;;;;5057028;28;20267;-72
2024/03/03 05:38:01;;;;;;;47.47;32.20;;;6.80;99.90;;;;;;5057421;28;20448;-71
2024/03/03 05:40:27;;;;;;;42.13;29.90;;;6.70;99.90;;;;;;5072383;28;20947;-72
2024/03/03 05:42:52;;;;;;;41.63;29.67;;;6.60;99.90;;;;;;5040067;28;20174;-72
2024/03/03 05:45:18;;;;;;;44.53;30.90;;;6.60;99.90;;;;;;5057624;28;20189;-72
2024/03/03 05:47:43;;;;;;;44.77;31.37;;;6.50;99.90;;;;;;5061399;28;20635;-72
2024/03/03 05:50:09;;;;;;;46.53;30.80;;;6.50;99.90;;;;;;5049311;28;20667;-73
2024/03/03 05:52:35;;;;;;;50.20;32.63;;;6.50;99.90;;;;;;5043051;28;20189;-72
2024/03/03 05:55:01;;;;;;;46.43;31.50;;;6.50;99.90;;;;;;5063740;28;20208;-71
2024/03/03 05:57:26;;;;;;;50.30;31.67;;;6.50;99.90;;;;;;5060113;28;20190;-73
2024/03/03 05:59:52;;;;;;;47.40;30.37;;;6.40;99.90;;;;;;5051136;28;20196;-72
2024/03/03 06:02:17;;;;;;;48.43;30.80;;;6.40;99.90;;;;;;5045188;28;20557;-71
2024/03/03 06:04:43;;;;;;;51.27;30.20;;;6.40;99.90;;;;;;5063535;28;20215;-71
2024/03/03 06:07:08;;;;;;;53.83;32.47;;;6.40;99.90;;;;;;5071314;28;20173;-70
2024/03/03 06:09:35;;;;;;;47.17;31.60;;;6.50;99.90;;;;;;5042291;28;20203;-71
2024/03/03 06:12:02;;;;;;;50.37;31.90;;;6.50;99.90;;;;;;5055238;28;20186;-70
2024/03/03 06:14:28;;;;;;;48.57;31.30;;;6.50;99.90;;;;;;5053020;28;20463;-70
2024/03/03 06:16:53;;;;;;;57.93;30.97;;;6.50;99.90;;;;;;5039101;28;20942;-70
2024/03/03 06:19:19;;;;;;;46.10;30.43;;;6.60;99.90;;;;;;5031751;28;20189;-71
2024/03/03 06:21:49;;;;;;;43.43;30.03;;;6.60;99.90;;;;;;5031758;28;20245;-70
2024/03/03 06:24:21;;;;;;;50.50;31.03;;;6.70;99.90;;;;;;5048709;28;20268;-72
2024/03/03 06:26:46;;;;;;;49.50;31.77;;;6.70;99.90;;;;;;5061914;28;20944;-70
2024/03/03 06:29:12;;;;;;;46.30;29.83;;;6.80;99.90;;;;;;5041715;28;20494;-70
2024/03/03 06:31:47;;;;;;;45.17;27.97;;;6.80;99.90;;;;;;5041590;28;20253;-71
2024/03/03 06:34:13;;;;;;;44.87;31.13;;;6.80;99.90;;;;;;5058088;28;20219;-71
2024/03/03 06:36:38;;;;;;;43.40;30.40;;;6.90;99.90;;;;;;5055792;28;20431;-71
2024/03/03 06:39:04;;;;;;;47.60;33.17;;;7.00;99.90;;;;;;5052868;28;20190;-71
2024/03/03 06:41:30;;;;;;;46.33;29.60;;;7.10;99.90;;;;;;5041366;28;20173;-71
2024/03/03 06:43:56;;;;;;;42.30;28.30;;;7.40;99.90;;;;;;5053546;28;20963;-71
2024/03/03 06:46:22;;;;;;;42.50;28.00;;;7.60;99.90;;;;;;5051263;28;20513;-70
2024/03/03 06:48:47;;;;;;;39.63;28.13;;;7.80;99.90;;;;;;5057351;28;20931;-71
2024/03/03 06:51:14;;;;;;;40.10;27.43;;;7.80;99.90;;;;;;5059904;28;20444;-71
2024/03/03 06:53:40;;;;;;;42.03;26.57;;;8.00;99.90;;;;;;5052491;28;20171;-70
2024/03/03 06:56:16;;;;;;;41.70;28.50;;;8.20;99.90;;;;;;5052986;28;20504;-72
2024/03/03 06:58:46;;;;;;;34.80;25.50;;;8.30;99.90;;;;;;5059802;28;20474;-71
2024/03/03 07:01:14;;;;;;;38.40;26.57;;;8.50;99.90;;;;;;5052861;28;20431;-71
2024/03/03 07:06:24;;;;;;;33.80;25.33;;;8.80;99.90;;;;;;5047275;28;20458;-70
2024/03/03 07:08:49;;;;;;;38.10;29.47;;;9.00;99.90;;;;;;5059319;28;20447;-71
2024/03/03 07:11:15;;;;;;;37.13;26.73;;;9.20;99.90;;;;;;5053183;28;20189;-71
2024/03/03 07:13:40;;;;;;;31.93;24.40;;;9.10;99.90;;;;;;5053437;28;20185;-70
2024/03/03 07:16:06;;;;;;;38.70;28.30;;;9.30;99.90;;;;;;5048845;28;20210;-71
2024/03/03 07:18:31;;;;;;;31.77;25.50;;;9.20;99.90;;;;;;5057240;28;20219;-71
2024/03/03 07:20:57;;;;;;;33.10;24.17;;;9.30;99.90;;;;;;5049376;28;20181;-70
2024/03/03 07:23:23;;;;;;;34.97;24.77;;;9.50;99.90;;;;;;5064818;28;20195;-70
2024/03/03 07:25:48;;;;;;;32.00;24.70;;;9.70;99.90;;;;;;5058254;28;20446;-71
2024/03/03 07:28:15;;;;;;;30.67;22.70;;;9.70;99.90;;;;;;5064431;28;20211;-71
2024/03/03 07:30:40;;;;;;;30.00;21.47;;;9.70;99.90;;;;;;5038391;28;20656;-70
2024/03/03 07:33:06;;;;;;;29.87;22.67;;;9.70;99.90;;;;;;5052813;28;20519;-71
2024/03/03 07:35:31;;;;;;;28.93;21.37;;;9.70;99.90;;;;;;5061766;28;20291;-71
2024/03/03 07:37:57;;;;;;;29.87;22.53;;;9.60;99.90;;;;;;5057105;28;20264;-70
2024/03/03 07:40:22;;;;;;;30.63;24.43;;;9.50;99.90;;;;;;5061373;28;20205;-71
2024/03/03 07:42:48;;;;;;;27.70;22.47;;;9.50;99.90;;;;;;5058214;28;20169;-72
2024/03/03 07:45:13;;;;;;;28.70;21.40;;;9.50;99.90;;;;;;5060444;28;20190;-71
2024/03/03 07:47:39;;;;;;;27.53;21.23;;;9.60;99.90;;;;;;5057392;28;20537;-71
2024/03/03 07:50:05;;;;;;;25.80;20.97;;;9.40;99.90;;;;;;5062462;28;20276;-72
2024/03/03 07:52:30;;;;;;;28.40;20.37;;;9.50;99.90;;;;;;5063820;28;20189;-72
2024/03/03 07:54:56;;;;;;;24.30;20.57;;;9.40;99.90;;;;;;5051470;28;20502;-71
2024/03/03 07:57:21;;;;;;;28.87;21.90;;;9.50;99.90;;;;;;5057226;28;20226;-70
2024/03/03 07:59:47;;;;;;;28.47;21.63;;;9.60;99.90;;;;;;5058687;28;20681;-72
2024/03/03 08:02:13;;;;;;;28.10;20.60;;;9.60;99.90;;;;;;5034242;28;20177;-70
2024/03/03 08:04:38;;;;;;;28.80;23.03;;;9.50;99.90;;;;;;5033995;28;20178;-70
2024/03/03 08:07:04;;;;;;;27.83;20.83;;;9.30;99.90;;;;;;5052892;28;20200;-71
2024/03/03 08:09:29;;;;;;;27.70;21.00;;;9.40;99.90;;;;;;5049962;28;20200;-71
2024/03/03 08:11:55;;;;;;;25.87;20.90;;;9.40;99.90;;;;;;5061489;28;20220;-71
2024/03/03 08:14:20;;;;;;;25.47;21.37;;;9.50;99.90;;;;;;5062256;28;20197;-71
2024/03/03 08:16:46;;;;;;;25.53;21.63;;;9.70;99.90;;;;;;5044816;28;20691;-70
2024/03/03 08:19:11;;;;;;;31.10;22.17;;;9.60;99.90;;;;;;5062313;28;20197;-70
2024/03/03 08:21:37;;;;;;;30.07;23.70;;;9.70;99.90;;;;;;5058726;28;20619;-70
2024/03/03 08:24:03;;;;;;;27.20;20.80;;;9.80;99.90;;;;;;5048092;28;20197;-70
2024/03/03 08:26:28;;;;;;;25.27;20.50;;;9.90;99.90;;;;;;5046648;28;20182;-71
2024/03/03 08:28:54;;;;;;;27.33;22.20;;;9.90;99.90;;;;;;5050312;28;20229;-72
2024/03/03 08:31:19;;;;;;;28.77;21.30;;;9.90;99.90;;;;;;5044909;28;20174;-70
2024/03/03 08:33:45;;;;;;;25.80;21.13;;;9.90;99.90;;;;;;5055549;28;20176;-71
2024/03/03 08:36:10;;;;;;;28.30;21.30;;;10.00;99.90;;;;;;5061794;28;20185;-71
2024/03/03 08:38:36;;;;;;;25.60;20.80;;;9.90;99.90;;;;;;5066029;28;20207;-71
2024/03/03 08:41:03;;;;;;;25.70;17.90;;;9.90;99.90;;;;;;5067044;28;20189;-70
2024/03/03 08:43:29;;;;;;;27.57;19.60;;;9.90;99.90;;;;;;5059041;28;20290;-70
2024/03/03 08:45:55;;;;;;;23.63;18.67;;;9.90;99.90;;;;;;5066516;28;20488;-70
2024/03/03 08:48:21;;;;;;;25.23;20.63;;;9.90;99.90;;;;;;5050466;28;20444;-71
2024/03/03 08:50:47;;;;;;;25.83;21.00;;;10.10;99.90;;;;;;5033228;28;20186;-71
2024/03/03 08:53:13;;;;;;;24.70;19.17;;;10.00;99.90;;;;;;5038872;28;20933;-71
2024/03/03 08:55:39;;;;;;;25.67;19.60;;;10.10;99.90;;;;;;5055441;28;20467;-71
2024/03/03 08:58:05;;;;;;;22.93;17.63;;;10.30;99.90;;;;;;5054810;28;20471;-70
2024/03/03 09:00:30;;;;;;;22.60;19.00;;;10.30;99.90;;;;;;5055699;28;20942;-70
2024/03/03 09:02:56;;;;;;;27.40;19.13;;;10.30;99.90;;;;;;5031202;28;20691;-71
2024/03/03 09:05:22;;;;;;;22.83;18.57;;;10.20;99.90;;;;;;5061591;28;20181;-71
2024/03/03 09:07:47;;;;;;;22.87;17.47;;;10.40;99.90;;;;;;5057432;28;20173;-73
2024/03/03 09:10:13;;;;;;;24.37;19.27;;;10.60;99.90;;;;;;5056684;28;20209;-71
2024/03/03 09:12:38;;;;;;;23.27;18.70;;;10.80;99.90;;;;;;5050226;28;20657;-71
2024/03/03 09:15:04;;;;;;;28.03;18.90;;;11.00;99.90;;;;;;5050742;28;20210;-72
2024/03/03 09:17:30;;;;;;;24.40;19.80;;;11.10;99.90;;;;;;5056409;28;20188;-71
2024/03/03 09:19:55;;;;;;;20.03;16.77;;;11.30;99.90;;;;;;5053436;28;20197;-71
2024/03/03 09:22:21;;;;;;;22.73;18.50;;;11.60;99.90;;;;;;5049283;28;20635;-71
2024/03/03 09:24:47;;;;;;;22.40;18.17;;;11.60;99.90;;;;;;5063847;28;20176;-72
2024/03/03 09:27:13;;;;;;;25.43;19.70;;;11.80;99.90;;;;;;5054611;28;20185;-71
2024/03/03 09:29:39;;;;;;;24.23;18.70;;;11.60;99.90;;;;;;5058488;28;20232;-71
2024/03/03 09:32:05;;;;;;;22.27;17.37;;;11.60;99.90;;;;;;5047386;28;20482;-71
2024/03/03 09:34:31;;;;;;;21.07;18.70;;;11.70;99.90;;;;;;5061647;28;20196;-71
2024/03/03 09:36:56;;;;;;;23.03;19.50;;;11.80;99.90;;;;;;5048068;28;20279;-71
2024/03/03 09:39:22;;;;;;;21.03;18.70;;;12.10;99.90;;;;;;5062515;28;20829;-71
2024/03/03 09:41:55;;;;;;;23.67;17.60;;;12.20;99.90;;;;;;5052918;28;20184;-71
2024/03/03 09:44:23;;;;;;;23.30;18.30;;;12.30;99.90;;;;;;5051413;28;20809;-71
2024/03/03 09:46:49;;;;;;;22.83;18.87;;;12.70;99.90;;;;;;5061217;28;21002;-72
2024/03/03 09:49:16;;;;;;;30.47;24.93;;;13.00;99.90;;;;;;5067161;28;20450;-72
2024/03/03 09:51:44;;;;;;;24.60;21.07;;;13.40;99.90;;;;;;5067239;28;20268;-72
2024/03/03 09:54:13;;;;;;;20.33;17.90;;;13.90;99.90;;;;;;5063151;28;20463;-72
2024/03/03 09:56:43;;;;;;;20.00;17.87;;;14.50;99.90;;;;;;5063395;28;20439;-72
2024/03/03 09:59:09;;;;;;;19.00;17.00;;;15.20;99.90;;;;;;5054616;28;20448;-71
2024/03/03 10:01:38;;;;;;;18.90;16.90;;;15.70;99.90;;;;;;5049715;28;20436;-72
2024/03/03 10:04:08;;;;;;;17.40;15.60;;;16.20;99.90;;;;;;5054248;28;20450;-72
2024/03/03 10:06:40;;;;;;;20.03;17.93;;;16.80;99.90;;;;;;5065611;28;20424;-72
2024/03/03 10:09:12;;;;;;;17.67;15.87;;;17.60;99.90;;;;;;5051329;28;20518;-72
2024/03/03 10:11:38;;;;;;;17.57;15.97;;;18.40;99.50;;;;;;5047107;28;20439;-72
2024/03/03 10:14:03;;;;;;;16.73;15.13;;;18.90;95.90;;;;;;5054658;28;20420;-72
2024/03/03 10:16:32;;;;;;;19.63;16.87;;;19.60;93.70;;;;;;5038423;28;20459;-72
2024/03/03 10:19:02;;;;;;;14.93;13.50;;;20.80;90.70;;;;;;5034454;28;20289;-72
2024/03/03 10:21:35;;;;;;;14.23;12.80;;;22.20;80.90;;;;;;5044912;28;20500;-69
2024/03/03 10:24:23;;;;;;;15.80;14.30;;;22.90;67.70;;;;;;5057935;28;20909;-70
2024/03/03 10:26:53;;;;;;;14.53;13.20;;;22.60;60.00;;;;;;5044037;28;20570;-71
2024/03/03 10:29:20;;;;;;;15.00;13.60;;;23.20;58.80;;;;;;5050716;28;20505;-71
2024/03/03 10:31:47;;;;;;;13.23;11.97;;;23.80;56.00;;;;;;5055114;28;20553;-69
2024/03/03 10:34:14;;;;;;;13.50;12.30;;;22.70;54.20;;;;;;5054955;28;20968;-70
2024/03/03 10:36:40;;;;;;;13.87;12.77;;;21.90;57.00;;;;;;5053266;28;20430;-72
2024/03/03 10:39:13;;;;;;;13.80;12.50;;;22.10;57.10;;;;;;5056307;28;20538;-72
2024/03/03 10:41:39;;;;;;;12.60;11.47;;;22.20;56.50;;;;;;5059414;28;20510;-70
2024/03/03 10:44:07;;;;;;;13.83;12.53;;;21.80;56.20;;;;;;5061440;28;20440;-70
2024/03/03 10:46:33;;;;;;;14.13;12.83;;;21.60;57.50;;;;;;5040122;28;20432;-68
2024/03/03 10:49:00;;;;;;;13.77;12.57;;;20.90;58.30;;;;;;5059538;28;20439;-70
2024/03/03 10:51:26;;;;;;;14.50;13.20;;;20.30;60.70;;;;;;5044767;28;20427;-70
2024/03/03 10:53:55;;;;;;;14.33;12.93;;;20.10;63.00;;;;;;5049255;28;20514;-70
2024/03/03 10:56:22;;;;;;;15.40;13.90;;;20.40;62.90;;;;;;5050994;28;20494;-72
2024/03/03 10:58:51;;;;;;;16.47;14.97;;;20.20;63.50;;;;;;5051732;28;20558;-71
2024/03/03 11:01:18;;;;;;;16.20;14.70;;;20.10;64.50;;;;;;5043083;28;20450;-71
2024/03/03 11:03:48;;;;;;;15.67;14.17;;;19.90;65.20;;;;;;5040532;28;20443;-70
2024/03/03 11:06:15;;;;;;;17.83;15.63;;;19.50;69.00;;;;;;5045048;28;20480;-72
2024/03/03 11:08:49;;;;;;;17.37;15.67;;;19.50;69.60;;;;;;5041144;28;20460;-75
2024/03/03 11:11:15;;;;;;;18.93;17.17;;;19.90;69.50;;;;;;5047259;28;20425;-68
2024/03/03 11:13:42;;;;;;;18.13;16.33;;;20.10;68.00;;;;;;5047290;28;20522;-69
2024/03/03 11:16:11;;;;;;;17.20;15.57;;;20.50;65.60;;;;;;5043308;28;20496;-70
2024/03/03 11:18:41;;;;;;;18.90;17.00;;;20.80;64.90;;;;;;5038106;28;20456;-69
2024/03/03 11:21:08;;;;;;;19.27;17.27;;;21.20;62.50;;;;;;5045986;28;20436;-69
2024/03/03 11:23:47;;;;;;;19.07;16.67;;;21.30;60.80;;;;;;5040914;28;20516;-70
2024/03/03 11:26:27;;;;;;;16.97;15.20;;;21.40;60.40;;;;;;5049358;28;20447;-69
2024/03/03 11:29:00;;;;;;;23.30;20.90;;;21.30;59.40;;;;;;5045062;28;20460;-70
2024/03/03 11:31:27;;;;;;;18.07;16.27;;;21.00;59.20;;;;;;5039879;28;21026;-70
2024/03/03 11:33:54;;;;;;;17.50;15.80;;;20.70;59.90;;;;;;5046999;28;20974;-70
2024/03/03 11:36:21;;;;;;;16.30;14.60;;;20.90;61.10;;;;;;5040797;28;20441;-70
2024/03/03 11:38:47;;;;;;;16.80;15.10;;;21.40;58.30;;;;;;5036665;28;21043;-70
2024/03/03 11:41:16;;;;;;;16.00;14.33;;;21.70;57.90;;;;;;5056530;28;20437;-70
2024/03/03 11:43:42;;;;;;;14.13;12.73;;;21.60;57.00;;;;;;5053404;28;20170;-71
2024/03/03 11:46:08;;;;;;;15.20;13.67;;;21.50;56.00;;;;;;5034424;28;20413;-70
2024/03/03 11:48:34;;;;;;;15.87;14.37;;;21.40;55.50;;;;;;5047499;28;20488;-70
2024/03/03 11:51:26;;;;;;;14.23;12.83;;;21.40;56.60;;;;;;5058814;28;20448;-72
2024/03/03 11:54:06;;;;;;;16.13;14.53;;;21.50;56.00;;;;;;5059617;28;20483;-70
2024/03/03 11:56:44;;;;;;;16.43;14.77;;;20.90;58.10;;;;;;5056409;28;20446;-70
2024/03/03 11:59:09;;;;;;;17.77;16.07;;;20.90;59.50;;;;;;5047955;28;20543;-70
2024/03/03 12:01:35;;;;;;;17.17;15.47;;;20.70;59.10;;;;;;5061225;28;20879;-71
2024/03/03 12:04:02;;;;;;;17.13;15.43;;;20.70;60.10;;;;;;5054127;28;20236;-69
2024/03/03 12:06:27;;;;;;;19.33;17.40;;;21.10;59.70;;;;;;5060486;28;20170;-70
2024/03/03 12:08:56;;;;;;;18.40;16.70;;;21.20;59.60;;;;;;5051895;28;20950;-70
2024/03/03 12:11:22;;;;;;;16.90;15.30;;;21.40;59.70;;;;;;5053783;28;20169;-69
2024/03/03 12:13:57;;;;;;;17.83;16.00;;;22.10;57.80;;;;;;5053653;28;20981;-70
2024/03/03 12:16:22;;;;;;;18.20;16.40;;;23.20;55.40;;;;;;5047079;28;20176;-71
2024/03/03 12:18:48;;;;;;;14.70;13.40;;;24.50;51.30;;;;;;5048282;28;20447;-70
2024/03/03 12:21:15;;;;;;;14.70;13.30;;;25.90;48.00;;;;;;5034392;28;21103;-70
2024/03/03 12:23:40;;;;;;;15.10;13.53;;;27.20;44.90;;;;;;5033862;28;20663;-69
2024/03/03 12:26:06;;;;;;;13.17;11.97;;;27.30;41.50;;;;;;5037705;28;20429;-70
2024/03/03 12:28:32;;;;;;;11.73;10.73;;;26.90;41.40;;;;;;5063241;28;20185;-68
2024/03/03 12:30:58;;;;;;;12.67;11.57;;;27.30;40.20;;;;;;5034725;28;20186;-70
2024/03/03 12:33:24;;;;;;;12.17;11.07;;;27.60;39.80;;;;;;5039494;28;20650;-70